Time;durP1;ratioP1;P1;durP2;ratioP2;P2;SDS_P1;SDS_P2;PMS_P1;PMS_P2;Temp;Humidity;BMP_temperature;BMP_pressure;BME280_temperature;BME280_humidity;BME280_pressure;Samples;Min_cycle;Max_cycle;Signal;HPM_P1;HPM_P2
2023/03/24 00:02:18;;;;;;;2.67;2.43;;;;;;;;;;4973112;28;20207;-79
2023/03/24 00:04:46;;;;;;;2.70;2.50;;;;;;;;;;4962568;28;20181;-79
2023/03/24 00:07:13;;;;;;;3.03;2.73;;;;;;;;;;4963721;28;20208;-79
2023/03/24 00:09:39;;;;;;;3.10;2.73;;;;;;;;;;4964499;28;20207;-79
2023/03/24 00:12:04;;;;;;;3.87;2.70;;;;;;;;;;4971004;28;20185;-79
2023/03/24 00:14:30;;;;;;;4.40;2.40;;;;;;;;;;4969503;28;20169;-79
2023/03/24 00:16:57;;;;;;;2.40;2.20;;;;;;;;;;4970308;28;20206;-79
2023/03/24 00:19:22;;;;;;;2.93;2.70;;;;;;;;;;4971005;28;20177;-79
2023/03/24 00:21:48;;;;;;;3.07;2.60;;;;;;;;;;4968742;28;20268;-79
2023/03/24 00:24:13;;;;;;;2.60;2.37;;;;;;;;;;4967506;28;20185;-79
2023/03/24 00:26:39;;;;;;;3.17;2.40;;;;;;;;;;4967196;28;20196;-79
2023/03/24 00:29:05;;;;;;;3.23;2.77;;;;;;;;;;4971061;28;20180;-79
2023/03/24 00:31:31;;;;;;;2.40;2.20;;;;;;;;;;4982074;28;20238;-79
2023/03/24 00:33:56;;;;;;;2.90;2.63;;;;;;;;;;4965353;28;20220;-79
2023/03/24 00:36:24;;;;;;;3.37;3.07;;;;;;;;;;4973909;28;20179;-79
2023/03/24 00:38:50;;;;;;;3.50;2.73;;;;;;;;;;4970603;28;20197;-79
2023/03/24 00:41:18;;;;;;;5.17;2.87;;;;;;;;;;4968919;28;20211;-79
2023/03/24 00:43:44;;;;;;;3.00;2.63;;;;;;;;;;4968929;28;20209;-79
2023/03/24 00:46:12;;;;;;;3.27;3.07;;;;;;;;;;4968816;28;20239;-79
2023/03/24 00:48:40;;;;;;;4.47;3.13;;;;;;;;;;4969111;28;20261;-79
2023/03/24 00:51:09;;;;;;;5.13;3.10;;;;;;;;;;4970653;28;20185;-79
2023/03/24 00:53:36;;;;;;;2.80;2.43;;;;;;;;;;4967943;28;20247;-79
2023/03/24 00:56:02;;;;;;;3.30;2.90;;;;;;;;;;4964180;28;20320;-79
2023/03/24 00:58:28;;;;;;;3.50;3.20;;;;;;;;;;4973312;28;20275;-79
2023/03/24 01:00:55;;;;;;;3.30;3.00;;;;;;;;;;4970831;28;20212;-79
2023/03/24 01:03:23;;;;;;;3.73;2.93;;;;;;;;;;4973625;28;20247;-79
2023/03/24 01:05:49;;;;;;;3.67;3.10;;;;;;;;;;4972438;28;20185;-79
2023/03/24 01:08:15;;;;;;;3.70;3.27;;;;;;;;;;4966080;28;20193;-79
2023/03/24 01:10:49;;;;;;;3.30;3.00;;;;;;;;;;4965526;28;20181;-79
2023/03/24 01:13:15;;;;;;;3.53;3.00;;;;;;;;;;4961814;28;20268;-79
2023/03/24 01:15:40;;;;;;;3.67;3.37;;;;;;;;;;4973423;28;20239;-79
2023/03/24 01:18:08;;;;;;;3.13;2.83;;;;;;;;;;4967769;28;20178;-79
2023/03/24 01:20:34;;;;;;;2.87;2.60;;;;;;;;;;4973377;28;20216;-79
2023/03/24 01:23:00;;;;;;;2.90;2.70;;;;;;;;;;4974069;28;20271;-79
2023/03/24 01:25:26;;;;;;;4.53;3.17;;;;;;;;;;4974467;28;20179;-79
2023/03/24 01:27:52;;;;;;;3.40;3.10;;;;;;;;;;4978410;28;20178;-79
2023/03/24 01:30:21;;;;;;;4.53;2.97;;;;;;;;;;4974706;28;20185;-79
2023/03/24 01:32:46;;;;;;;3.30;2.77;;;;;;;;;;4971859;28;20204;-79
2023/03/24 01:35:12;;;;;;;3.10;2.77;;;;;;;;;;4973560;28;20211;-79
2023/03/24 01:37:37;;;;;;;3.87;3.00;;;;;;;;;;4973947;28;20169;-79
2023/03/24 01:40:10;;;;;;;2.53;2.33;;;;;;;;;;4973698;28;20180;-79
2023/03/24 01:42:36;;;;;;;3.30;3.00;;;;;;;;;;4965470;28;20259;-79
2023/03/24 01:45:21;;;;;;;4.73;2.80;;;;;;;;;;4973768;28;20231;-79
2023/03/24 01:47:48;;;;;;;2.93;2.57;;;;;;;;;;4966179;28;20255;-79
2023/03/24 01:50:13;;;;;;;3.97;2.70;;;;;;;;;;4970409;28;20184;-79
2023/03/24 01:52:41;;;;;;;3.63;2.70;;;;;;;;;;4976312;28;20206;-79
2023/03/24 01:55:10;;;;;;;2.60;2.40;;;;;;;;;;4978273;28;20242;-79
2023/03/24 01:57:43;;;;;;;2.73;2.40;;;;;;;;;;4973596;28;20188;-79
2023/03/24 02:00:10;;;;;;;2.60;2.37;;;;;;;;;;4971150;28;20188;-79
2023/03/24 02:02:36;;;;;;;2.60;2.40;;;;;;;;;;4972732;28;20212;-79
2023/03/24 02:05:04;;;;;;;2.40;2.20;;;;;;;;;;4977709;28;20207;-79
2023/03/24 02:07:35;;;;;;;2.90;2.60;;;;;;;;;;4969388;28;20180;-79
2023/03/24 02:10:02;;;;;;;3.13;2.23;;;;;;;;;;4972838;28;20191;-79
2023/03/24 02:12:28;;;;;;;2.23;2.03;;;;;;;;;;4971732;28;20319;-79
2023/03/24 02:14:53;;;;;;;2.13;1.93;;;;;;;;;;4972266;28;20275;-79
2023/03/24 02:17:32;;;;;;;2.30;2.10;;;;;;;;;;4972824;28;20195;-79
2023/03/24 02:20:11;;;;;;;2.40;2.20;;;;;;;;;;4972686;28;20263;-79
2023/03/24 02:22:39;;;;;;;2.60;2.20;;;;;;;;;;4980485;28;20230;-79
2023/03/24 02:25:08;;;;;;;2.13;1.93;;;;;;;;;;4970896;28;20189;-79
2023/03/24 02:27:41;;;;;;;2.50;2.30;;;;;;;;;;4969866;28;20192;-79
2023/03/24 02:30:25;;;;;;;4.03;2.00;;;;;;;;;;4971890;28;20185;-79
2023/03/24 02:32:59;;;;;;;4.13;2.30;;;;;;;;;;4978302;28;20319;-79
2023/03/24 02:35:24;;;;;;;2.27;2.10;;;;;;;;;;4973632;28;20195;-79
2023/03/24 02:37:56;;;;;;;2.47;2.27;;;;;;;;;;4972940;28;20189;-79
2023/03/24 02:40:40;;;;;;;2.47;2.27;;;;;;;;;;4970689;28;20213;-79
2023/03/24 02:43:05;;;;;;;2.27;2.07;;;;;;;;;;4972130;28;20295;-79
2023/03/24 02:45:34;;;;;;;3.07;2.20;;;;;;;;;;4974188;28;20311;-79
2023/03/24 02:48:19;;;;;;;2.83;2.27;;;;;;;;;;4975818;28;20242;-79
2023/03/24 02:50:57;;;;;;;2.30;2.10;;;;;;;;;;4973564;28;20246;-79
2023/03/24 02:53:25;;;;;;;2.40;2.20;;;;;;;;;;4971659;28;20227;-79
2023/03/24 02:55:50;;;;;;;2.67;2.10;;;;;;;;;;4972215;28;20187;-79
2023/03/24 02:58:18;;;;;;;2.47;1.90;;;;;;;;;;4972114;28;20210;-79
2023/03/24 03:00:48;;;;;;;2.50;2.30;;;;;;;;;;4975652;28;20214;-79
2023/03/24 03:03:20;;;;;;;3.20;2.40;;;;;;;;;;4972793;28;20207;-79
2023/03/24 03:06:01;;;;;;;2.70;2.50;;;;;;;;;;4971930;28;20172;-79
2023/03/24 03:08:27;;;;;;;2.33;2.00;;;;;;;;;;4970936;28;20214;-79
2023/03/24 03:10:53;;;;;;;3.67;2.80;;;;;;;;;;4968396;28;20275;-79
2023/03/24 03:13:28;;;;;;;2.47;2.27;;;;;;;;;;4974130;28;20223;-79
2023/03/24 03:15:56;;;;;;;3.00;2.47;;;;;;;;;;4964836;28;20186;-79
2023/03/24 03:18:39;;;;;;;5.30;2.57;;;;;;;;;;4972039;28;20223;-79
2023/03/24 03:21:07;;;;;;;2.43;2.23;;;;;;;;;;4971346;28;20236;-79
2023/03/24 03:24:02;;;;;;;3.47;2.60;;;;;;;;;;4970178;28;20211;-79
2023/03/24 03:26:31;;;;;;;2.70;2.50;;;;;;;;;;4958350;28;20250;-79
2023/03/24 03:28:58;;;;;;;2.50;2.30;;;;;;;;;;4970126;28;20184;-79
2023/03/24 03:31:28;;;;;;;2.77;2.23;;;;;;;;;;4970982;28;20196;-79
2023/03/24 03:34:03;;;;;;;2.63;1.97;;;;;;;;;;4971131;28;20184;-79
2023/03/24 03:36:32;;;;;;;2.40;2.13;;;;;;;;;;4970055;28;20192;-79
2023/03/24 03:39:12;;;;;;;2.93;2.23;;;;;;;;;;4971575;28;20184;-79
2023/03/24 03:41:38;;;;;;;2.70;2.30;;;;;;;;;;4977570;28;20243;-79
2023/03/24 03:44:03;;;;;;;2.57;2.23;;;;;;;;;;4987020;28;20184;-79
2023/03/24 03:46:29;;;;;;;2.93;2.30;;;;;;;;;;4975375;28;20180;-79
2023/03/24 03:48:54;;;;;;;2.27;2.07;;;;;;;;;;4985871;28;20169;-79
2023/03/24 03:51:20;;;;;;;3.70;2.40;;;;;;;;;;4975577;28;20188;-79
2023/03/24 03:53:50;;;;;;;2.60;2.23;;;;;;;;;;4990628;28;20238;-79
2023/03/24 03:56:20;;;;;;;2.57;2.10;;;;;;;;;;4977835;28;20251;-79
2023/03/24 03:58:46;;;;;;;2.37;2.17;;;;;;;;;;4973186;28;20184;-79
2023/03/24 04:01:30;;;;;;;2.93;2.17;;;;;;;;;;4974253;28;20211;-79
2023/03/24 04:04:10;;;;;;;2.83;1.83;;;;;;;;;;4988770;28;20266;-79
2023/03/24 04:06:56;;;;;;;2.43;2.23;;;;;;;;;;4976432;28;20230;-79
2023/03/24 04:09:30;;;;;;;3.83;2.30;;;;;;;;;;4986450;28;20179;-79
2023/03/24 04:12:17;;;;;;;2.40;2.20;;;;;;;;;;4973039;28;20190;-79
2023/03/24 04:14:42;;;;;;;2.47;2.27;;;;;;;;;;4979517;28;20187;-79
2023/03/24 04:17:17;;;;;;;3.63;2.30;;;;;;;;;;4981657;28;20184;-79
2023/03/24 04:20:00;;;;;;;2.30;2.10;;;;;;;;;;4992119;28;20187;-79
2023/03/24 04:22:40;;;;;;;2.40;2.20;;;;;;;;;;4998121;28;20212;-79
2023/03/24 04:25:19;;;;;;;3.00;2.70;;;;;;;;;;4971775;28;20196;-79
2023/03/24 04:27:45;;;;;;;3.30;2.30;;;;;;;;;;4971190;28;20180;-79
2023/03/24 04:30:16;;;;;;;3.53;2.13;;;;;;;;;;4973920;28;20184;-79
2023/03/24 04:32:47;;;;;;;2.07;1.93;;;;;;;;;;4976325;28;20216;-79
2023/03/24 04:35:19;;;;;;;2.90;2.60;;;;;;;;;;4977455;28;20178;-79
2023/03/24 04:37:45;;;;;;;2.07;1.93;;;;;;;;;;4976751;28;20310;-79
2023/03/24 04:40:13;;;;;;;2.30;2.00;;;;;;;;;;4982491;28;20184;-79
2023/03/24 04:42:46;;;;;;;2.53;2.33;;;;;;;;;;4979610;28;20295;-79
2023/03/24 04:45:13;;;;;;;2.40;2.17;;;;;;;;;;4974124;28;20275;-79
2023/03/24 04:47:45;;;;;;;2.93;1.90;;;;;;;;;;4975722;28;20177;-79
2023/03/24 04:50:11;;;;;;;2.60;2.40;;;;;;;;;;4974055;28;20248;-79
2023/03/24 04:52:40;;;;;;;2.20;2.00;;;;;;;;;;4974280;28;20185;-79
2023/03/24 04:55:28;;;;;;;3.00;2.50;;;;;;;;;;4976606;28;20184;-79
2023/03/24 04:57:53;;;;;;;3.50;2.70;;;;;;;;;;4974532;28;20187;-80
2023/03/24 05:00:18;;;;;;;3.40;2.70;;;;;;;;;;4974208;28;20272;-79
2023/03/24 05:02:44;;;;;;;3.70;2.97;;;;;;;;;;4974682;28;20294;-80
2023/03/24 05:05:09;;;;;;;3.87;3.47;;;;;;;;;;4974203;28;20177;-79
2023/03/24 05:07:34;;;;;;;9.87;3.10;;;;;;;;;;4975439;28;20180;-79
2023/03/24 05:10:00;;;;;;;4.13;3.20;;;;;;;;;;4973532;28;20184;-80
2023/03/24 05:12:25;;;;;;;4.10;3.70;;;;;;;;;;4972368;28;20192;-79
2023/03/24 05:14:50;;;;;;;3.90;3.60;;;;;;;;;;4973336;28;20281;-80
2023/03/24 05:17:15;;;;;;;4.13;3.40;;;;;;;;;;4973964;28;20200;-80
2023/03/24 05:19:41;;;;;;;5.60;3.97;;;;;;;;;;4973872;28;20177;-80
2023/03/24 05:22:06;;;;;;;5.20;4.47;;;;;;;;;;4974273;28;20201;-80
2023/03/24 05:24:31;;;;;;;4.80;4.30;;;;;;;;;;4972655;28;20176;-80
2023/03/24 05:26:56;;;;;;;6.90;5.00;;;;;;;;;;4972550;28;20184;-79
2023/03/24 05:29:21;;;;;;;4.40;4.00;;;;;;;;;;4973220;28;20270;-79
2023/03/24 05:31:47;;;;;;;5.07;4.07;;;;;;;;;;4973605;28;20206;-80
2023/03/24 05:34:12;;;;;;;4.73;4.20;;;;;;;;;;4974431;28;20184;-80
2023/03/24 05:36:37;;;;;;;8.40;5.00;;;;;;;;;;4974135;28;20184;-80
2023/03/24 05:39:02;;;;;;;5.13;4.63;;;;;;;;;;4974422;28;20169;-79
2023/03/24 05:41:28;;;;;;;4.93;4.50;;;;;;;;;;4973580;28;20239;-79
2023/03/24 05:43:53;;;;;;;5.90;4.37;;;;;;;;;;4972191;28;20275;-80
2023/03/24 05:46:18;;;;;;;4.33;3.93;;;;;;;;;;4971913;28;20231;-80
2023/03/24 05:48:47;;;;;;;15.87;14.13;;;;;;;;;;4972917;28;20181;-80
2023/03/24 05:51:15;;;;;;;7.30;6.70;;;;;;;;;;4969684;28;20185;-81
2023/03/24 05:53:40;;;;;;;5.80;4.60;;;;;;;;;;4971371;28;20190;-79
2023/03/24 05:56:10;;;;;;;5.47;3.67;;;;;;;;;;4972458;28;20196;-79
2023/03/24 05:58:38;;;;;;;3.87;3.57;;;;;;;;;;4972446;28;20237;-80
2023/03/24 06:01:07;;;;;;;3.67;3.30;;;;;;;;;;4971414;28;20211;-80
2023/03/24 06:03:32;;;;;;;4.13;3.73;;;;;;;;;;4978553;28;20184;-80
2023/03/24 06:06:01;;;;;;;3.30;3.00;;;;;;;;;;4970675;28;20177;-80
2023/03/24 06:08:27;;;;;;;4.13;3.73;;;;;;;;;;4972733;28;20266;-80
2023/03/24 06:10:52;;;;;;;6.30;5.70;;;;;;;;;;4969994;28;20188;-81
2023/03/24 06:13:17;;;;;;;4.57;4.17;;;;;;;;;;4972060;28;20189;-80
2023/03/24 06:15:45;;;;;;;6.17;5.67;;;;;;;;;;4972351;28;20184;-81
2023/03/24 06:18:13;;;;;;;7.93;5.23;;;;;;;;;;4973280;28;20305;-80
2023/03/24 06:20:40;;;;;;;4.67;4.00;;;;;;;;;;4971372;28;20239;-80
2023/03/24 06:23:05;;;;;;;4.63;4.23;;;;;;;;;;4969456;28;20177;-80
2023/03/24 06:25:32;;;;;;;16.17;14.97;;;;;;;;;;4973137;28;20219;-80
2023/03/24 06:28:02;;;;;;;6.40;4.73;;;;;;;;;;4972443;28;20256;-80
2023/03/24 06:30:28;;;;;;;4.77;4.37;;;;;;;;;;4972296;28;20181;-79
2023/03/24 06:32:54;;;;;;;5.07;4.57;;;;;;;;;;4972545;28;20231;-80
2023/03/24 06:35:19;;;;;;;6.87;5.93;;;;;;;;;;4970508;28;20228;-80
2023/03/24 06:37:44;;;;;;;5.33;4.83;;;;;;;;;;4972733;28;20173;-80
2023/03/24 06:40:13;;;;;;;5.63;5.03;;;;;;;;;;4972655;28;20184;-80
2023/03/24 06:42:38;;;;;;;9.63;5.10;;;;;;;;;;4972583;28;20204;-80
2023/03/24 06:45:03;;;;;;;5.40;4.90;;;;;;;;;;4966337;28;20251;-81
2023/03/24 06:47:28;;;;;;;5.20;4.70;;;;;;;;;;4971841;28;20238;-81
2023/03/24 06:49:54;;;;;;;5.20;4.70;;;;;;;;;;4971392;28;20184;-80
2023/03/24 06:52:19;;;;;;;5.37;4.87;;;;;;;;;;4970805;28;20226;-81
2023/03/24 06:54:45;;;;;;;5.00;4.60;;;;;;;;;;4970810;28;20192;-81
2023/03/24 06:57:10;;;;;;;5.83;5.07;;;;;;;;;;4976500;28;20188;-81
2023/03/24 06:59:35;;;;;;;5.13;4.63;;;;;;;;;;4970549;28;20207;-81
2023/03/24 07:02:01;;;;;;;5.10;4.23;;;;;;;;;;4979359;28;20211;-81
2023/03/24 07:04:26;;;;;;;5.07;4.50;;;;;;;;;;4969039;28;20173;-81
2023/03/24 07:06:51;;;;;;;4.70;4.27;;;;;;;;;;4972482;28;20191;-81
2023/03/24 07:09:17;;;;;;;4.20;3.80;;;;;;;;;;4968074;28;20184;-80
2023/03/24 07:11:43;;;;;;;4.17;3.73;;;;;;;;;;4971648;28;20263;-81
2023/03/24 07:14:08;;;;;;;5.27;3.53;;;;;;;;;;4969953;28;20267;-81
2023/03/24 07:16:33;;;;;;;3.70;3.40;;;;;;;;;;4975400;28;20180;-81
2023/03/24 07:18:58;;;;;;;3.47;3.00;;;;;;;;;;4968779;28;20192;-81
2023/03/24 07:21:23;;;;;;;3.63;3.33;;;;;;;;;;4971329;28;20329;-81
2023/03/24 07:23:49;;;;;;;3.30;3.00;;;;;;;;;;4974304;28;20184;-81
2023/03/24 07:26:14;;;;;;;3.80;3.40;;;;;;;;;;4972270;28;20240;-81
2023/03/24 07:28:40;;;;;;;3.23;2.90;;;;;;;;;;4971439;28;20192;-81
2023/03/24 07:31:09;;;;;;;3.20;2.90;;;;;;;;;;4969560;28;20180;-81
2023/03/24 07:33:35;;;;;;;2.77;2.43;;;;;;;;;;4968909;28;20198;-81
2023/03/24 07:36:00;;;;;;;3.00;2.80;;;;;;;;;;4968020;28;20184;-81
2023/03/24 07:38:25;;;;;;;2.90;2.50;;;;;;;;;;4969862;28;20223;-81
2023/03/24 07:40:50;;;;;;;2.77;2.57;;;;;;;;;;4970987;28;20242;-81
2023/03/24 07:43:16;;;;;;;2.50;2.30;;;;;;;;;;4968145;28;20208;-81
2023/03/24 07:45:43;;;;;;;2.97;2.33;;;;;;;;;;4977618;28;20297;-81
2023/03/24 07:48:08;;;;;;;2.30;2.10;;;;;;;;;;4971099;28;20183;-81
2023/03/24 07:50:33;;;;;;;3.03;2.20;;;;;;;;;;4969379;28;20183;-81
2023/03/24 07:52:58;;;;;;;2.30;2.10;;;;;;;;;;4967936;28;20191;-81
2023/03/24 07:55:24;;;;;;;2.47;2.27;;;;;;;;;;4970021;28;20169;-81
2023/03/24 07:57:49;;;;;;;2.43;2.17;;;;;;;;;;4968534;28;20173;-81
2023/03/24 08:00:16;;;;;;;1.80;1.70;;;;;;;;;;4984244;28;20178;-82
2023/03/24 08:02:46;;;;;;;2.87;1.70;;;;;;;;;;4972590;28;20214;-81
2023/03/24 08:05:13;;;;;;;2.23;2.03;;;;;;;;;;4973022;28;20195;-81
2023/03/24 08:07:43;;;;;;;2.80;2.00;;;;;;;;;;4970173;28;20181;-81
2023/03/24 08:10:09;;;;;;;1.73;1.60;;;;;;;;;;4974059;28;20271;-81
2023/03/24 08:12:34;;;;;;;2.07;1.60;;;;;;;;;;4969533;28;20247;-81
2023/03/24 08:15:00;;;;;;;2.97;1.60;;;;;;;;;;4977495;28;20193;-80
2023/03/24 08:17:25;;;;;;;1.70;1.47;;;;;;;;;;4968950;28;20193;-81
2023/03/24 08:19:50;;;;;;;1.47;1.37;;;;;;;;;;4962109;28;20187;-80
2023/03/24 08:22:16;;;;;;;2.10;1.60;;;;;;;;;;4964089;28;20204;-80
2023/03/24 08:24:41;;;;;;;1.87;1.57;;;;;;;;;;4965418;28;20204;-80
2023/03/24 08:27:06;;;;;;;1.30;1.20;;;;;;;;;;4967166;28;20185;-80
2023/03/24 08:29:33;;;;;;;1.77;1.67;;;;;;;;;;4965988;28;20182;-81
2023/03/24 08:31:59;;;;;;;1.60;1.50;;;;;;;;;;4965934;28;20183;-80
2023/03/24 08:34:24;;;;;;;3.90;3.60;;;;;;;;;;4968666;28;20211;-80
2023/03/24 08:36:49;;;;;;;1.97;1.87;;;;;;;;;;4968440;28;20275;-80
2023/03/24 08:39:14;;;;;;;1.53;1.30;;;;;;;;;;4965377;28;20188;-80
2023/03/24 08:41:39;;;;;;;1.33;1.30;;;;;;;;;;4963167;28;20442;-80
2023/03/24 08:44:06;;;;;;;1.60;1.50;;;;;;;;;;4966130;28;20185;-80
2023/03/24 08:46:31;;;;;;;1.73;1.63;;;;;;;;;;4947976;28;20228;-81
2023/03/24 08:48:57;;;;;;;2.53;1.80;;;;;;;;;;4941161;28;20181;-81
2023/03/24 08:51:23;;;;;;;1.57;1.47;;;;;;;;;;4943656;28;20206;-80
2023/03/24 08:53:50;;;;;;;1.70;1.60;;;;;;;;;;4958132;28;20186;-80
2023/03/24 08:56:15;;;;;;;1.60;1.50;;;;;;;;;;4957299;28;20190;-80
2023/03/24 08:58:40;;;;;;;1.63;1.53;;;;;;;;;;4946799;28;20218;-80
2023/03/24 09:01:06;;;;;;;1.60;1.50;;;;;;;;;;4947177;28;20215;-81
2023/03/24 09:03:31;;;;;;;2.07;1.97;;;;;;;;;;4949954;28;20174;-80
2023/03/24 09:06:00;;;;;;;2.00;1.90;;;;;;;;;;4947754;28;20185;-80
2023/03/24 09:08:25;;;;;;;2.10;1.90;;;;;;;;;;4950217;28;20282;-80
2023/03/24 09:10:50;;;;;;;1.83;1.73;;;;;;;;;;4946814;28;20181;-80
2023/03/24 09:13:16;;;;;;;2.20;2.10;;;;;;;;;;4950580;28;20183;-80
2023/03/24 09:15:46;;;;;;;1.97;1.87;;;;;;;;;;4949167;28;20236;-81
2023/03/24 09:18:11;;;;;;;1.90;1.80;;;;;;;;;;4949432;28;20301;-80
2023/03/24 09:20:36;;;;;;;1.93;1.80;;;;;;;;;;4952854;28;20216;-80
2023/03/24 09:23:02;;;;;;;1.83;1.73;;;;;;;;;;4949235;28;20184;-80
2023/03/24 09:25:27;;;;;;;1.70;1.60;;;;;;;;;;4950506;28;20269;-80
2023/03/24 09:27:52;;;;;;;3.10;2.80;;;;;;;;;;4953559;28;20180;-80
2023/03/24 09:30:18;;;;;;;2.57;2.37;;;;;;;;;;4948842;28;20198;-80
2023/03/24 09:32:44;;;;;;;1.90;1.80;;;;;;;;;;4956896;28;20185;-80
2023/03/24 09:35:09;;;;;;;1.83;1.73;;;;;;;;;;4951872;28;20260;-80
2023/03/24 09:37:35;;;;;;;2.37;2.17;;;;;;;;;;4953587;28;20213;-80
2023/03/24 09:40:01;;;;;;;2.00;1.80;;;;;;;;;;4950003;28;20185;-80
2023/03/24 09:42:37;;;;;;;2.00;1.87;;;;;;;;;;4953906;28;20220;-80
2023/03/24 09:45:05;;;;;;;2.07;1.87;;;;;;;;;;4963406;28;20212;-80
2023/03/24 09:47:34;;;;;;;1.80;1.70;;;;;;;;;;4976691;28;20304;-80
2023/03/24 09:50:01;;;;;;;1.90;1.80;;;;;;;;;;4970590;28;20216;-80
2023/03/24 09:52:31;;;;;;;1.90;1.80;;;;;;;;;;4971866;28;20212;-81
2023/03/24 09:55:02;;;;;;;2.37;1.80;;;;;;;;;;4967429;28;20185;-80
2023/03/24 09:57:28;;;;;;;1.80;1.70;;;;;;;;;;4970906;28;20180;-80
2023/03/24 09:59:53;;;;;;;1.60;1.50;;;;;;;;;;4972663;28;20192;-80
2023/03/24 10:02:19;;;;;;;1.93;1.83;;;;;;;;;;4973660;28;20288;-80
2023/03/24 10:04:44;;;;;;;1.83;1.73;;;;;;;;;;4971811;28;20174;-80
2023/03/24 10:07:19;;;;;;;2.00;1.73;;;;;;;;;;4977069;28;20179;-80
2023/03/24 10:09:46;;;;;;;2.37;2.17;;;;;;;;;;4971444;28;20243;-80
2023/03/24 10:12:31;;;;;;;2.00;1.90;;;;;;;;;;4967249;28;20203;-80
2023/03/24 10:14:56;;;;;;;1.80;1.70;;;;;;;;;;4972098;28;20185;-80
2023/03/24 10:17:21;;;;;;;1.80;1.70;;;;;;;;;;4972597;28;20272;-80
2023/03/24 10:20:06;;;;;;;1.80;1.70;;;;;;;;;;4973647;28;20182;-80
2023/03/24 10:22:38;;;;;;;1.60;1.50;;;;;;;;;;4967874;28;20304;-80
2023/03/24 10:25:22;;;;;;;2.03;1.73;;;;;;;;;;4963028;28;20219;-80
2023/03/24 10:27:50;;;;;;;1.90;1.80;;;;;;;;;;4977628;28;20177;-81
2023/03/24 10:30:20;;;;;;;1.93;1.80;;;;;;;;;;4970691;28;20230;-80
2023/03/24 10:32:46;;;;;;;1.70;1.60;;;;;;;;;;4974680;28;20274;-80
2023/03/24 10:35:17;;;;;;;1.57;1.47;;;;;;;;;;4970097;28;20275;-80
2023/03/24 10:37:43;;;;;;;2.97;1.67;;;;;;;;;;4963217;28;20196;-80
2023/03/24 10:40:16;;;;;;;1.80;1.70;;;;;;;;;;4971583;28;20187;-80
2023/03/24 10:42:43;;;;;;;1.40;1.30;;;;;;;;;;4964112;28;20205;-80
2023/03/24 10:45:13;;;;;;;1.90;1.60;;;;;;;;;;4965891;28;20219;-80
2023/03/24 10:47:40;;;;;;;1.43;1.33;;;;;;;;;;4968354;28;20261;-79
2023/03/24 10:50:06;;;;;;;1.80;1.70;;;;;;;;;;4971054;28;20186;-80
2023/03/24 10:52:39;;;;;;;1.47;1.37;;;;;;;;;;4972360;28;20189;-79
2023/03/24 10:55:06;;;;;;;1.43;1.33;;;;;;;;;;4970661;28;20193;-80
2023/03/24 10:57:32;;;;;;;1.70;1.60;;;;;;;;;;4969830;28;20199;-80
2023/03/24 10:59:59;;;;;;;1.47;1.37;;;;;;;;;;4965947;28;20191;-81
2023/03/24 11:02:34;;;;;;;2.23;1.47;;;;;;;;;;4980763;28;20207;-81
2023/03/24 11:05:04;;;;;;;1.87;1.40;;;;;;;;;;4968680;28;20215;-80
2023/03/24 11:07:37;;;;;;;1.53;1.43;;;;;;;;;;4967933;28;20257;-81
2023/03/24 11:10:14;;;;;;;1.50;1.40;;;;;;;;;;4970027;28;20190;-80
2023/03/24 11:12:57;;;;;;;1.30;1.20;;;;;;;;;;4984888;28;20240;-81
2023/03/24 11:15:22;;;;;;;1.50;1.40;;;;;;;;;;4971510;28;20204;-80
2023/03/24 11:17:55;;;;;;;1.43;1.33;;;;;;;;;;4970964;28;20190;-81
2023/03/24 11:20:30;;;;;;;1.50;1.37;;;;;;;;;;4971007;28;20245;-81
2023/03/24 11:23:01;;;;;;;1.57;1.47;;;;;;;;;;4969899;28;20197;-80
2023/03/24 11:25:31;;;;;;;1.27;1.20;;;;;;;;;;4970703;28;20181;-80
2023/03/24 11:27:58;;;;;;;1.20;1.10;;;;;;;;;;4971558;28;20194;-81
2023/03/24 11:30:24;;;;;;;1.13;1.07;;;;;;;;;;4971897;28;20183;-82
2023/03/24 11:32:53;;;;;;;1.10;1.00;;;;;;;;;;4976027;28;20240;-80
2023/03/24 11:35:20;;;;;;;1.13;1.03;;;;;;;;;;4969392;28;20228;-80
2023/03/24 11:37:45;;;;;;;1.17;1.10;;;;;;;;;;4970052;28;20183;-80
2023/03/24 11:40:10;;;;;;;0.90;0.90;;;;;;;;;;4963440;28;20199;-81
2023/03/24 11:42:40;;;;;;;0.90;0.90;;;;;;;;;;4968197;28;20217;-80
2023/03/24 11:45:19;;;;;;;0.90;0.90;;;;;;;;;;4971045;28;20236;-81
2023/03/24 11:47:45;;;;;;;1.20;1.00;;;;;;;;;;4959631;28;20229;-80
2023/03/24 11:50:13;;;;;;;1.27;1.17;;;;;;;;;;4967904;28;20213;-80
2023/03/24 11:52:58;;;;;;;1.20;1.00;;;;;;;;;;4966292;28;20197;-80
2023/03/24 11:55:33;;;;;;;1.03;1.00;;;;;;;;;;4969604;28;20187;-80
2023/03/24 11:58:11;;;;;;;0.83;0.83;;;;;;;;;;4969601;28;20498;-81
2023/03/24 12:00:40;;;;;;;1.00;1.00;;;;;;;;;;4963924;28;20194;-80
2023/03/24 12:03:12;;;;;;;1.10;1.00;;;;;;;;;;4970226;28;20285;-80
2023/03/24 12:05:46;;;;;;;1.73;1.07;;;;;;;;;;4972041;28;20177;-81
2023/03/24 12:08:37;;;;;;;1.10;1.00;;;;;;;;;;4970935;28;20183;-80
2023/03/24 12:11:07;;;;;;;0.80;0.80;;;;;;;;;;4968703;28;20204;-81
2023/03/24 12:13:35;;;;;;;1.30;1.20;;;;;;;;;;4971562;28;20196;-81
2023/03/24 12:16:06;;;;;;;1.00;1.00;;;;;;;;;;4970447;28;20181;-80
2023/03/24 12:18:36;;;;;;;0.77;0.77;;;;;;;;;;4970177;28;20206;-79
2023/03/24 12:21:28;;;;;;;0.80;0.80;;;;;;;;;;4969977;28;20496;-81
2023/03/24 12:23:56;;;;;;;1.20;0.90;;;;;;;;;;4946423;28;20222;-80
2023/03/24 12:26:22;;;;;;;0.80;0.80;;;;;;;;;;4969559;28;20254;-80
2023/03/24 12:29:06;;;;;;;0.67;0.67;;;;;;;;;;4970513;28;20192;-80
2023/03/24 12:31:34;;;;;;;0.80;0.80;;;;;;;;;;4987251;28;20206;-81
2023/03/24 12:34:00;;;;;;;0.70;0.70;;;;;;;;;;4970314;28;20199;-80
2023/03/24 12:36:30;;;;;;;0.70;0.70;;;;;;;;;;4970579;28;20286;-80
2023/03/24 12:39:00;;;;;;;0.70;0.70;;;;;;;;;;4970774;28;20234;-80
2023/03/24 12:41:28;;;;;;;0.90;0.90;;;;;;;;;;4968969;28;20208;-80
2023/03/24 12:44:12;;;;;;;0.60;0.60;;;;;;;;;;4968796;28;20198;-80
2023/03/24 12:46:55;;;;;;;0.90;0.90;;;;;;;;;;4967878;28;20195;-81
2023/03/24 12:49:35;;;;;;;1.60;0.60;;;;;;;;;;4968762;28;20185;-81
2023/03/24 12:52:19;;;;;;;0.73;0.70;;;;;;;;;;4968797;28;20323;-81
2023/03/24 12:55:16;;;;;;;0.93;0.93;;;;;;;;;;4972957;28;20197;-80
2023/03/24 12:57:45;;;;;;;0.87;0.87;;;;;;;;;;4925962;28;20193;-80
2023/03/24 13:00:20;;;;;;;1.47;1.37;;;;;;;;;;4972057;28;20193;-80
2023/03/24 13:02:54;;;;;;;3.07;2.67;;;;;;;;;;4968021;28;20224;-81
2023/03/24 13:05:21;;;;;;;0.80;0.80;;;;;;;;;;4974257;28;20189;-80
2023/03/24 13:07:52;;;;;;;0.77;0.73;;;;;;;;;;4975957;28;20186;-81
2023/03/24 13:10:24;;;;;;;3.40;1.50;;;;;;;;;;4973662;28;20256;-81
2023/03/24 13:13:05;;;;;;;4.20;2.93;;;;;;;;;;4974372;28;20185;-81
2023/03/24 13:15:30;;;;;;;2.17;1.60;;;;;;;;;;4973318;28;20245;-81
2023/03/24 13:18:07;;;;;;;2.70;1.53;;;;;;;;;;4972051;28;20193;-79
2023/03/24 13:20:34;;;;;;;3.17;2.87;;;;;;;;;;4974739;28;20193;-81
2023/03/24 13:23:09;;;;;;;1.70;1.60;;;;;;;;;;4974519;28;20206;-80
2023/03/24 13:25:47;;;;;;;1.00;1.00;;;;;;;;;;4972280;28;20268;-81
2023/03/24 13:28:16;;;;;;;0.90;0.90;;;;;;;;;;4971472;28;20244;-81
2023/03/24 13:30:42;;;;;;;1.20;1.10;;;;;;;;;;4972609;28;20198;-81
2023/03/24 13:33:15;;;;;;;1.37;1.20;;;;;;;;;;4974427;28;20178;-81
2023/03/24 13:35:55;;;;;;;1.90;1.80;;;;;;;;;;4971331;28;20187;-80
2023/03/24 13:38:44;;;;;;;2.30;1.50;;;;;;;;;;4973029;28;20213;-80
2023/03/24 13:41:11;;;;;;;2.10;1.50;;;;;;;;;;4965479;28;20220;-81
2023/03/24 13:43:45;;;;;;;2.10;1.90;;;;;;;;;;4974501;28;20206;-81
2023/03/24 13:46:12;;;;;;;3.10;2.33;;;;;;;;;;4973421;28;20245;-80
2023/03/24 13:48:40;;;;;;;1.20;1.10;;;;;;;;;;4974066;28;20177;-81
2023/03/24 13:51:20;;;;;;;0.80;0.80;;;;;;;;;;4973434;28;20174;-79
2023/03/24 13:53:51;;;;;;;1.50;1.10;;;;;;;;;;4973732;28;20178;-82
2023/03/24 13:56:22;;;;;;;0.70;0.70;;;;;;;;;;4970178;28;20204;-82
2023/03/24 13:58:47;;;;;;;1.13;1.03;;;;;;;;;;4973038;28;20176;-82
2023/03/24 14:01:31;;;;;;;0.80;0.80;;;;;;;;;;4973643;28;20270;-81
2023/03/24 14:04:15;;;;;;;3.50;3.20;;;;;;;;;;4964176;28;20259;-82
2023/03/24 14:06:45;;;;;;;0.93;0.63;;;;;;;;;;4972381;28;20263;-82
2023/03/24 14:09:17;;;;;;;0.73;0.70;;;;;;;;;;4971069;28;20178;-82
2023/03/24 14:11:44;;;;;;;0.70;0.60;;;;;;;;;;4972757;28;20194;-83
2023/03/24 14:14:15;;;;;;;0.90;0.90;;;;;;;;;;4969513;28;20271;-82
2023/03/24 14:16:43;;;;;;;0.70;0.70;;;;;;;;;;4973724;28;20207;-82
2023/03/24 14:19:17;;;;;;;0.80;0.80;;;;;;;;;;4969018;28;20252;-82
2023/03/24 14:21:42;;;;;;;1.00;0.70;;;;;;;;;;4973295;28;20199;-82
2023/03/24 14:24:16;;;;;;;1.20;1.10;;;;;;;;;;4970968;28;20231;-82
2023/03/24 14:26:41;;;;;;;0.80;0.80;;;;;;;;;;4969183;28;20228;-82
2023/03/24 14:29:26;;;;;;;0.80;0.80;;;;;;;;;;4972452;28;20180;-81
2023/03/24 14:31:58;;;;;;;0.97;0.87;;;;;;;;;;4964909;28;20184;-82
2023/03/24 14:34:24;;;;;;;0.70;0.70;;;;;;;;;;4969203;28;20184;-81
2023/03/24 14:36:58;;;;;;;0.87;0.87;;;;;;;;;;4972969;28;20180;-81
2023/03/24 14:39:29;;;;;;;0.80;0.80;;;;;;;;;;4970239;28;20203;-81
2023/03/24 14:41:54;;;;;;;0.93;0.80;;;;;;;;;;4971908;28;20241;-81
2023/03/24 14:44:38;;;;;;;3.30;2.47;;;;;;;;;;4972387;28;20179;-81
2023/03/24 14:47:03;;;;;;;1.37;1.23;;;;;;;;;;4975435;28;20217;-81
2023/03/24 14:49:30;;;;;;;2.00;1.63;;;;;;;;;;4958109;28;20207;-81
2023/03/24 14:52:01;;;;;;;1.73;1.63;;;;;;;;;;4970761;28;20180;-81
2023/03/24 14:54:29;;;;;;;2.30;2.10;;;;;;;;;;4975157;28;20211;-81
2023/03/24 14:56:56;;;;;;;11.40;7.03;;;;;;;;;;4973715;28;20179;-81